createdAt,value
2023-04-09T00:02:00.666Z,93.80
2023-04-09T00:04:28.928Z,93.80
2023-04-09T00:06:57.162Z,93.70
2023-04-09T00:09:25.422Z,93.70
2023-04-09T00:11:53.661Z,93.70
2023-04-09T00:14:23.301Z,93.70
2023-04-09T00:16:51.650Z,93.70
2023-04-09T00:19:19.887Z,93.70
2023-04-09T00:21:48.480Z,93.70
2023-04-09T00:24:16.875Z,93.80
2023-04-09T00:26:45.070Z,93.70
2023-04-09T00:29:13.403Z,93.70
2023-04-09T00:31:43.031Z,93.70
2023-04-09T00:34:11.607Z,93.70
2023-04-09T00:36:39.842Z,93.70
2023-04-09T00:39:08.088Z,94.10
2023-04-09T00:41:36.343Z,93.70
2023-04-09T00:44:04.622Z,93.70
2023-04-09T00:46:33.513Z,93.70
2023-04-09T00:49:03.664Z,93.80
2023-04-09T00:51:31.959Z,93.90
2023-04-09T00:54:00.343Z,93.90
2023-04-09T00:56:29.338Z,93.90
2023-04-09T00:58:57.585Z,94.00
2023-04-09T01:01:25.861Z,94.00
2023-04-09T01:03:54.314Z,94.00
2023-04-09T01:06:34.265Z,94.00
2023-04-09T01:09:06.437Z,94.00
2023-04-09T01:11:44.729Z,94.10
2023-04-09T01:14:22.268Z,94.10
2023-04-09T01:16:56.482Z,94.10
2023-04-09T01:19:45.123Z,94.00
2023-04-09T01:22:30.651Z,94.20
2023-04-09T01:25:10.819Z,94.10
2023-04-09T01:28:01.360Z,94.20
2023-04-09T01:30:32.124Z,94.20
2023-04-09T01:33:01.170Z,94.20
2023-04-09T01:35:30.976Z,94.20
2023-04-09T01:38:00.992Z,94.50
2023-04-09T01:40:29.346Z,94.10
2023-04-09T01:42:59.544Z,94.10
2023-04-09T01:45:28.256Z,94.20
2023-04-09T01:47:58.872Z,94.20
2023-04-09T01:50:27.563Z,94.20
2023-04-09T01:52:56.174Z,94.20
2023-04-09T01:55:24.452Z,94.20
2023-04-09T01:57:52.801Z,94.20
2023-04-09T02:00:21.386Z,94.20
2023-04-09T02:02:56.772Z,94.30
2023-04-09T02:05:30.269Z,94.20
2023-04-09T02:08:02.927Z,94.30
2023-04-09T02:10:34.309Z,94.20
2023-04-09T02:13:04.682Z,94.30
2023-04-09T02:15:35.561Z,94.30
2023-04-09T02:18:04.032Z,94.20
2023-04-09T02:20:33.700Z,94.20
2023-04-09T02:23:01.925Z,94.20
2023-04-09T02:25:30.492Z,94.20
2023-04-09T02:27:58.886Z,94.30
2023-04-09T02:30:27.224Z,94.30
2023-04-09T02:32:55.551Z,94.20
2023-04-09T02:35:23.884Z,94.30
2023-04-09T02:37:54.085Z,94.30
2023-04-09T02:40:22.349Z,94.30
2023-04-09T02:42:50.528Z,94.30
2023-04-09T02:45:18.940Z,94.20
2023-04-09T02:47:47.188Z,94.20
2023-04-09T02:50:15.486Z,94.20
2023-04-09T02:52:49.615Z,94.20
2023-04-09T02:55:20.125Z,94.20
2023-04-09T02:57:48.377Z,94.20
2023-04-09T03:00:16.770Z,94.10
2023-04-09T03:02:45.128Z,94.10
2023-04-09T03:05:13.570Z,94.00
2023-04-09T03:07:41.949Z,94.10
2023-04-09T03:10:11.398Z,94.10
2023-04-09T03:12:41.086Z,94.20
2023-04-09T03:15:10.009Z,94.20
2023-04-09T03:17:38.465Z,94.20
2023-04-09T03:20:08.291Z,94.20
2023-04-09T03:22:39.448Z,94.20
2023-04-09T03:25:30.433Z,94.10
2023-04-09T03:28:00.969Z,94.20
2023-04-09T03:30:37.577Z,94.20
2023-04-09T03:33:07.654Z,94.20
2023-04-09T03:35:45.280Z,94.10
2023-04-09T03:38:14.346Z,94.10
2023-04-09T03:40:42.780Z,94.20
2023-04-09T03:43:12.417Z,94.10
2023-04-09T03:45:46.223Z,94.10
2023-04-09T03:48:23.239Z,94.20
2023-04-09T03:50:53.876Z,94.20
2023-04-09T03:53:30.949Z,94.00
2023-04-09T03:56:05.503Z,94.20
2023-04-09T03:58:37.281Z,94.20
2023-04-09T04:01:05.601Z,94.10
2023-04-09T04:03:39.760Z,94.10
2023-04-09T04:06:23.137Z,94.20
2023-04-09T04:09:08.980Z,94.10
2023-04-09T04:11:58.884Z,94.10
2023-04-09T04:14:41.181Z,94.10
2023-04-09T04:17:19.916Z,94.10
2023-04-09T04:19:49.090Z,94.10
2023-04-09T04:22:17.474Z,94.10
2023-04-09T04:24:47.810Z,94.10
2023-04-09T04:27:20.708Z,94.00
2023-04-09T04:29:50.348Z,94.00
2023-04-09T04:32:43.836Z,94.00
2023-04-09T04:35:13.463Z,94.00
2023-04-09T04:37:42.715Z,94.00
2023-04-09T04:40:12.105Z,94.10
2023-04-09T04:42:43.161Z,94.10
2023-04-09T04:45:17.301Z,94.10
2023-04-09T04:47:52.447Z,94.10
2023-04-09T04:50:21.112Z,94.20
2023-04-09T04:53:00.752Z,94.20
2023-04-09T04:55:36.973Z,94.20
2023-04-09T04:58:06.123Z,94.20
2023-04-09T05:00:45.243Z,94.20
2023-04-09T05:03:15.180Z,94.10
2023-04-09T05:05:55.070Z,94.10
2023-04-09T05:08:24.465Z,94.10
2023-04-09T05:10:56.280Z,94.10
2023-04-09T05:13:30.527Z,94.00
2023-04-09T05:16:00.393Z,94.00
2023-04-09T05:18:28.816Z,94.00
2023-04-09T05:20:57.170Z,94.00
2023-04-09T05:23:27.552Z,94.00
2023-04-09T05:25:56.289Z,93.90
2023-04-09T05:28:33.805Z,93.90
2023-04-09T05:31:13.491Z,93.80
2023-04-09T05:33:48.695Z,93.90
2023-04-09T05:36:22.863Z,93.90
2023-04-09T05:38:51.367Z,93.80
2023-04-09T05:41:19.814Z,93.80
2023-04-09T05:44:11.404Z,93.80
2023-04-09T05:46:44.633Z,93.90
2023-04-09T05:49:16.266Z,93.90
2023-04-09T05:51:47.294Z,93.90
2023-04-09T05:54:22.658Z,93.90
2023-04-09T05:56:52.447Z,93.90
2023-04-09T05:59:21.219Z,94.00
2023-04-09T06:01:51.034Z,94.00
2023-04-09T06:04:19.423Z,94.00
2023-04-09T06:06:48.164Z,94.00
2023-04-09T06:09:16.491Z,94.00
2023-04-09T06:11:44.699Z,94.00
2023-04-09T06:14:16.538Z,94.00
2023-04-09T06:16:44.860Z,94.10
2023-04-09T06:19:17.725Z,94.00
2023-04-09T06:21:46.161Z,94.00
2023-04-09T06:24:14.364Z,93.80
2023-04-09T06:26:42.672Z,93.90
2023-04-09T06:29:10.886Z,94.00
2023-04-09T06:31:39.478Z,93.80
2023-04-09T06:34:07.838Z,94.00
2023-04-09T06:36:37.763Z,93.90
2023-04-09T06:39:06.002Z,93.90
2023-04-09T06:41:34.422Z,93.90
2023-04-09T06:44:12.003Z,93.80
2023-04-09T06:46:40.667Z,93.90
2023-04-09T06:49:08.892Z,93.70
2023-04-09T06:51:38.661Z,93.60
2023-04-09T06:54:07.217Z,93.50
2023-04-09T06:56:35.565Z,93.60
2023-04-09T06:59:03.810Z,93.50
2023-04-09T07:01:32.507Z,93.30
2023-04-09T07:04:00.964Z,93.20
2023-04-09T07:06:29.247Z,93.20
2023-04-09T07:08:58.851Z,93.20
2023-04-09T07:11:27.489Z,93.10
2023-04-09T07:13:56.884Z,93.00
2023-04-09T07:16:25.325Z,93.10
2023-04-09T07:18:53.668Z,93.20
2023-04-09T07:21:21.896Z,93.20
2023-04-09T07:23:51.108Z,93.30
2023-04-09T07:26:21.493Z,93.50
2023-04-09T07:28:49.803Z,93.60
2023-04-09T07:31:18.093Z,93.60
2023-04-09T07:33:46.369Z,93.50
2023-04-09T07:36:14.591Z,93.70
2023-04-09T07:38:42.794Z,93.30
2023-04-09T07:41:12.446Z,93.00
2023-04-09T07:43:42.552Z,93.10
2023-04-09T07:46:10.914Z,93.00
2023-04-09T07:48:39.267Z,93.00
2023-04-09T07:51:07.642Z,93.10
2023-04-09T07:53:35.922Z,93.10
2023-04-09T07:56:04.229Z,92.90
2023-04-09T07:58:32.398Z,92.80
2023-04-09T08:01:02.038Z,92.60
2023-04-09T08:03:30.818Z,92.60
2023-04-09T08:05:59.293Z,92.60
2023-04-09T08:08:27.546Z,92.60
2023-04-09T08:10:55.923Z,92.60
2023-04-09T08:13:25.191Z,92.50
2023-04-09T08:15:53.630Z,92.60
2023-04-09T08:18:23.290Z,92.30
2023-04-09T08:20:51.557Z,92.20
2023-04-09T08:23:19.910Z,92.30
2023-04-09T08:25:48.150Z,92.30
2023-04-09T08:28:16.327Z,92.40
2023-04-09T08:30:44.795Z,92.30
2023-04-09T08:33:13.355Z,92.30
2023-04-09T08:35:43.378Z,92.20
2023-04-09T08:38:11.671Z,92.20
2023-04-09T08:40:39.882Z,92.00
2023-04-09T08:43:09.526Z,91.80
2023-04-09T08:45:38.513Z,91.70
2023-04-09T08:48:09.780Z,92.20
2023-04-09T08:50:38.792Z,92.30
2023-04-09T08:53:10.770Z,92.10
2023-04-09T08:55:39.428Z,92.30
2023-04-09T08:58:09.503Z,92.10
2023-04-09T09:00:38.117Z,92.20
2023-04-09T09:03:08.298Z,92.20
2023-04-09T09:05:38.757Z,92.20
2023-04-09T09:08:09.391Z,92.10
2023-04-09T09:10:42.337Z,92.00
2023-04-09T09:13:23.657Z,92.00
2023-04-09T09:15:55.210Z,91.90
2023-04-09T09:18:38.290Z,91.70
2023-04-09T09:21:12.532Z,91.60
2023-04-09T09:23:42.626Z,91.50
2023-04-09T09:26:16.278Z,91.50
2023-04-09T09:28:45.067Z,91.30
2023-04-09T09:31:14.247Z,91.30
2023-04-09T09:33:42.561Z,91.30
2023-04-09T09:36:11.511Z,91.20
2023-04-09T09:38:57.230Z,91.30
2023-04-09T09:41:26.196Z,91.00
2023-04-09T09:43:54.505Z,91.00
2023-04-09T09:46:23.673Z,91.00
2023-04-09T09:48:52.101Z,90.90
2023-04-09T09:51:23.447Z,90.90
2023-04-09T09:53:55.689Z,90.80
2023-04-09T09:56:32.346Z,90.90
2023-04-09T09:59:08.666Z,90.90
2023-04-09T10:01:37.340Z,90.70
2023-04-09T10:04:08.700Z,90.60
2023-04-09T10:06:38.841Z,90.40
2023-04-09T10:09:07.960Z,90.30
2023-04-09T10:11:38.782Z,90.30
2023-04-09T10:14:07.024Z,90.40
2023-04-09T10:16:35.527Z,90.40
2023-04-09T10:19:04.461Z,90.30
2023-04-09T10:21:42.849Z,90.50
2023-04-09T10:24:11.824Z,90.50
2023-04-09T10:26:44.729Z,90.50
2023-04-09T10:29:15.146Z,90.50
2023-04-09T10:32:04.923Z,90.60
2023-04-09T10:34:37.373Z,90.60
2023-04-09T10:37:08.820Z,90.60
2023-04-09T10:39:41.975Z,90.50
2023-04-09T10:42:15.894Z,90.50
2023-04-09T10:44:44.855Z,90.50
2023-04-09T10:47:13.540Z,90.50
2023-04-09T10:49:43.133Z,90.60
2023-04-09T10:52:13.816Z,90.60
2023-04-09T10:54:47.774Z,90.50
2023-04-09T10:57:19.563Z,90.50
2023-04-09T10:59:50.077Z,90.50
2023-04-09T11:02:55.729Z,90.50
2023-04-09T11:05:30.440Z,90.40
2023-04-09T11:08:04.949Z,90.30
2023-04-09T11:10:33.653Z,90.20
2023-04-09T11:13:04.327Z,90.30
2023-04-09T11:15:33.617Z,90.30
2023-04-09T11:18:02.975Z,90.30
2023-04-09T11:20:32.180Z,90.40
2023-04-09T11:23:00.673Z,90.70
2023-04-09T11:25:31.076Z,90.70
2023-04-09T11:27:59.770Z,90.70
2023-04-09T11:30:31.120Z,90.60
2023-04-09T11:32:59.412Z,90.60
2023-04-09T11:35:27.724Z,90.70
2023-04-09T11:37:56.066Z,90.70
2023-04-09T11:40:25.778Z,90.60
2023-04-09T11:42:55.440Z,90.80
2023-04-09T11:45:27.154Z,90.70
2023-04-09T11:47:57.403Z,90.50
2023-04-09T11:50:25.831Z,90.30
2023-04-09T11:52:54.079Z,90.30
2023-04-09T11:55:27.117Z,90.20
2023-04-09T11:58:00.972Z,90.10
2023-04-09T12:00:30.280Z,90.10
2023-04-09T12:03:05.485Z,90.10
2023-04-09T12:05:35.698Z,90.10
2023-04-09T12:08:06.207Z,90.00
2023-04-09T12:10:35.488Z,90.10
2023-04-09T12:13:04.702Z,90.10
2023-04-09T12:15:35.279Z,90.10
2023-04-09T12:18:05.572Z,90.10
2023-04-09T12:20:35.681Z,90.10
2023-04-09T12:23:05.819Z,90.00
2023-04-09T12:25:37.341Z,90.00
2023-04-09T12:28:06.749Z,89.90
2023-04-09T12:30:35.600Z,90.10
2023-04-09T12:33:07.613Z,90.10
2023-04-09T12:35:38.202Z,90.10
2023-04-09T12:38:06.796Z,90.10
2023-04-09T12:40:36.220Z,89.70
2023-04-09T12:43:04.628Z,89.50
2023-04-09T12:45:33.880Z,89.30
2023-04-09T12:48:02.209Z,89.40
2023-04-09T12:50:31.953Z,89.40
2023-04-09T12:53:00.406Z,89.40
2023-04-09T12:55:29.006Z,89.30
2023-04-09T12:57:57.274Z,89.40
2023-04-09T13:00:25.724Z,89.80
2023-04-09T13:02:55.731Z,89.70
2023-04-09T13:05:24.326Z,89.70
2023-04-09T13:07:54.026Z,89.70
2023-04-09T13:10:22.276Z,89.80
2023-04-09T13:12:51.561Z,89.50
2023-04-09T13:15:21.235Z,89.70
2023-04-09T13:17:49.651Z,89.40
2023-04-09T13:20:18.213Z,89.40
2023-04-09T13:22:48.859Z,89.40
2023-04-09T13:25:18.620Z,90.00
2023-04-09T13:27:46.847Z,89.70
2023-04-09T13:30:15.428Z,89.60
2023-04-09T13:32:43.764Z,89.80
2023-04-09T13:35:12.040Z,89.80
2023-04-09T13:37:40.328Z,90.00
2023-04-09T13:40:10.057Z,90.00
2023-04-09T13:42:39.642Z,90.00
2023-04-09T13:45:08.613Z,90.00
2023-04-09T13:47:37.966Z,90.00
2023-04-09T13:50:07.411Z,89.80
2023-04-09T13:52:35.768Z,89.70
2023-04-09T13:55:04.810Z,89.70
2023-04-09T13:57:33.090Z,89.80
2023-04-09T14:00:04.924Z,90.00
2023-04-09T14:02:33.481Z,90.00
2023-04-09T14:05:02.593Z,90.10
2023-04-09T14:07:31.048Z,90.10
2023-04-09T14:09:59.620Z,90.10
2023-04-09T14:12:27.858Z,90.20
2023-04-09T14:14:56.156Z,90.10
2023-04-09T14:17:25.899Z,90.10
2023-04-09T14:19:54.140Z,90.20
2023-04-09T14:22:22.411Z,90.20
2023-04-09T14:24:51.141Z,90.20
2023-04-09T14:27:19.437Z,90.20
2023-04-09T14:29:47.689Z,90.20
2023-04-09T14:32:16.123Z,90.10
2023-04-09T14:34:45.767Z,90.20
2023-04-09T14:37:13.985Z,90.20
2023-04-09T14:39:42.242Z,90.20
2023-04-09T14:42:10.475Z,90.10
2023-04-09T14:44:38.987Z,90.20
2023-04-09T14:47:07.327Z,90.30
2023-04-09T14:49:35.610Z,90.30
2023-04-09T14:52:05.435Z,90.50
2023-04-09T14:54:34.180Z,90.30
2023-04-09T14:57:03.835Z,90.30
2023-04-09T14:59:32.124Z,90.30
2023-04-09T15:02:00.620Z,90.10
2023-04-09T15:04:29.009Z,90.10
2023-04-09T15:07:00.384Z,90.00
2023-04-09T15:09:30.046Z,89.80
2023-04-09T15:11:58.315Z,90.00
2023-04-09T15:14:30.892Z,89.70
2023-04-09T15:16:59.100Z,89.80
2023-04-09T15:19:27.340Z,89.80
2023-04-09T15:21:56.333Z,89.80
2023-04-09T15:24:24.572Z,89.80
2023-04-09T15:26:54.181Z,89.90
2023-04-09T15:29:22.417Z,90.00
2023-04-09T15:31:53.493Z,90.00
2023-04-09T15:34:21.768Z,90.00
2023-04-09T15:36:49.943Z,89.70
2023-04-09T15:39:18.166Z,90.00
2023-04-09T15:41:46.510Z,90.00
2023-04-09T15:44:16.309Z,90.10
2023-04-09T15:46:45.612Z,90.20
2023-04-09T15:49:13.858Z,90.00
2023-04-09T15:51:42.087Z,90.00
2023-04-09T15:54:10.354Z,89.70
2023-04-09T15:56:40.392Z,89.50
2023-04-09T15:59:08.967Z,89.50
2023-04-09T16:01:38.966Z,89.80
2023-04-09T16:04:09.130Z,89.70
2023-04-09T16:06:39.270Z,90.00
2023-04-09T16:09:07.549Z,89.90
2023-04-09T16:11:37.651Z,90.00
2023-04-09T16:14:05.920Z,90.00
2023-04-09T16:16:34.138Z,90.30
2023-04-09T16:19:03.916Z,90.90
2023-04-09T16:21:32.298Z,91.40
2023-04-09T16:24:01.928Z,91.70
2023-04-09T16:26:30.505Z,91.70
2023-04-09T16:29:02.983Z,91.70
2023-04-09T16:31:31.338Z,91.30
2023-04-09T16:33:59.608Z,90.60
2023-04-09T16:36:29.370Z,90.20
2023-04-09T16:38:57.677Z,90.00
2023-04-09T16:41:26.335Z,89.70
2023-04-09T16:43:54.633Z,89.90
2023-04-09T16:46:23.041Z,89.70
2023-04-09T16:48:51.464Z,89.30
2023-04-09T16:51:19.805Z,89.30
2023-04-09T16:53:49.463Z,89.30
2023-04-09T16:56:17.854Z,89.00
2023-04-09T16:58:46.616Z,88.60
2023-04-09T17:01:14.875Z,88.30
2023-04-09T17:03:43.239Z,88.30
2023-04-09T17:06:11.610Z,88.70
2023-04-09T17:08:39.867Z,88.20
2023-04-09T17:11:09.456Z,88.20
2023-04-09T17:13:37.634Z,88.50
2023-04-09T17:16:06.764Z,88.40
2023-04-09T17:18:35.049Z,88.50
2023-04-09T17:21:03.414Z,88.70
2023-04-09T17:23:31.898Z,89.10
2023-04-09T17:26:01.227Z,89.20
2023-04-09T17:28:30.907Z,89.10
2023-04-09T17:30:59.238Z,88.90
2023-04-09T17:33:27.497Z,88.80
2023-04-09T17:35:57.764Z,88.80
2023-04-09T17:38:27.052Z,88.90
2023-04-09T17:40:55.446Z,89.20
2023-04-09T17:43:23.928Z,89.20
2023-04-09T17:45:53.671Z,89.30
2023-04-09T17:48:22.168Z,89.50
2023-04-09T17:50:51.276Z,89.50
2023-04-09T17:53:19.508Z,89.50
2023-04-09T17:55:50.743Z,89.70
2023-04-09T17:58:19.028Z,89.60
2023-04-09T18:00:47.490Z,89.60
2023-04-09T18:03:18.010Z,89.60
2023-04-09T18:05:46.705Z,90.00
2023-04-09T18:08:15.019Z,89.70
2023-04-09T18:10:43.507Z,89.80
2023-04-09T18:13:11.706Z,90.00
2023-04-09T18:15:40.189Z,89.90
2023-04-09T18:18:08.447Z,90.00
2023-04-09T18:20:38.135Z,90.00
2023-04-09T18:23:06.363Z,90.20
2023-04-09T18:25:34.699Z,90.20
2023-04-09T18:28:03.154Z,90.10
2023-04-09T18:30:31.375Z,90.10
2023-04-09T18:32:59.691Z,90.20
2023-04-09T18:35:28.212Z,90.30
2023-04-09T18:37:58.108Z,90.50
2023-04-09T18:40:26.637Z,90.10
2023-04-09T18:42:55.069Z,90.20
2023-04-09T18:45:23.613Z,90.20
2023-04-09T18:47:52.282Z,90.30
2023-04-09T18:50:20.754Z,90.40
2023-04-09T18:52:49.054Z,90.40
2023-04-09T18:55:18.896Z,90.40
2023-04-09T18:57:47.452Z,90.40
2023-04-09T19:00:16.245Z,90.40
2023-04-09T19:02:44.848Z,90.40
2023-04-09T19:05:14.213Z,90.40
2023-04-09T19:07:43.529Z,90.40
2023-04-09T19:10:12.091Z,90.40
2023-04-09T19:12:48.524Z,90.70
2023-04-09T19:15:17.040Z,90.60
2023-04-09T19:17:45.286Z,90.60
2023-04-09T19:20:13.963Z,90.50
2023-04-09T19:22:42.248Z,90.60
2023-04-09T19:25:11.356Z,90.50
2023-04-09T19:27:41.559Z,90.50
2023-04-09T19:30:11.135Z,90.50
2023-04-09T19:32:39.977Z,90.50
2023-04-09T19:35:09.264Z,90.50
2023-04-09T19:37:37.857Z,91.10
2023-04-09T19:40:07.085Z,91.10
2023-04-09T19:42:35.342Z,91.20
2023-04-09T19:45:05.423Z,91.40
2023-04-09T19:47:34.841Z,91.50
2023-04-09T19:50:03.180Z,91.70
2023-04-09T19:52:31.806Z,91.90
2023-04-09T19:55:01.765Z,91.50
2023-04-09T19:57:31.933Z,91.20
2023-04-09T20:00:00.291Z,91.10
2023-04-09T20:02:31.086Z,90.90
2023-04-09T20:05:00.032Z,91.20
2023-04-09T20:07:28.807Z,91.40
2023-04-09T20:09:57.677Z,91.50
2023-04-09T20:12:29.363Z,91.60
2023-04-09T20:14:57.426Z,91.70
2023-04-09T20:17:26.090Z,91.80
2023-04-09T20:19:56.813Z,91.90
2023-04-09T20:22:25.353Z,92.00
2023-04-09T20:24:55.468Z,91.90
2023-04-09T20:27:23.765Z,91.90
2023-04-09T20:29:52.891Z,91.90
2023-04-09T20:32:21.327Z,91.80
2023-04-09T20:34:49.643Z,91.80
2023-04-09T20:37:19.804Z,91.80
2023-04-09T20:39:48.426Z,91.70
2023-04-09T20:42:17.020Z,92.10
2023-04-09T20:44:45.361Z,91.70
2023-04-09T20:47:15.425Z,91.40
2023-04-09T20:49:46.095Z,91.40
2023-04-09T20:52:14.902Z,91.40
2023-04-09T20:54:45.909Z,91.50
2023-04-09T20:57:14.294Z,91.40
2023-04-09T20:59:42.835Z,91.50
2023-04-09T21:02:13.996Z,91.50
2023-04-09T21:04:42.495Z,91.40
2023-04-09T21:07:10.918Z,90.90
2023-04-09T21:09:39.257Z,90.80
2023-04-09T21:12:08.916Z,90.70
2023-04-09T21:14:37.672Z,90.60
2023-04-09T21:17:06.415Z,90.30
2023-04-09T21:19:35.057Z,90.20
2023-04-09T21:22:03.682Z,90.10
2023-04-09T21:24:34.032Z,90.00
2023-04-09T21:27:06.883Z,90.00
2023-04-09T21:29:36.746Z,90.00
2023-04-09T21:32:05.324Z,90.10
2023-04-09T21:34:33.641Z,89.90
2023-04-09T21:37:04.023Z,89.90
2023-04-09T21:39:32.333Z,89.90
2023-04-09T21:42:00.588Z,89.70
2023-04-09T21:44:29.484Z,90.00
2023-04-09T21:47:01.431Z,89.90
2023-04-09T21:49:30.002Z,90.00
2023-04-09T21:51:59.248Z,90.00
2023-04-09T21:54:27.881Z,90.20
2023-04-09T21:56:57.004Z,89.90
2023-04-09T21:59:25.299Z,89.70
2023-04-09T22:01:53.652Z,89.60
2023-04-09T22:04:24.072Z,89.70
2023-04-09T22:06:52.684Z,89.60
2023-04-09T22:09:21.246Z,89.30
2023-04-09T22:11:49.483Z,89.30
2023-04-09T22:14:19.224Z,89.00
2023-04-09T22:16:47.655Z,89.00
2023-04-09T22:19:16.134Z,88.80
2023-04-09T22:21:49.733Z,88.70
2023-04-09T22:24:19.290Z,88.60
2023-04-09T22:26:47.688Z,88.60
2023-04-09T22:29:16.024Z,88.80
2023-04-09T22:31:44.636Z,88.70
2023-04-09T22:34:20.820Z,88.50
2023-04-09T22:36:51.707Z,88.50
2023-04-09T22:39:21.620Z,88.30
2023-04-09T22:41:50.174Z,88.20
2023-04-09T22:44:18.749Z,88.60
2023-04-09T22:46:47.675Z,88.40
2023-04-09T22:49:16.043Z,88.10
2023-04-09T22:51:44.730Z,88.00
2023-04-09T22:54:14.635Z,88.10
2023-04-09T22:56:43.138Z,88.00
2023-04-09T22:59:11.460Z,88.10
2023-04-09T23:01:39.918Z,88.10
2023-04-09T23:04:08.559Z,88.10
2023-04-09T23:06:37.806Z,89.10
2023-04-09T23:09:06.067Z,88.30
2023-04-09T23:11:37.649Z,88.30
2023-04-09T23:14:05.931Z,88.40
2023-04-09T23:16:34.766Z,88.40
2023-04-09T23:19:03.507Z,88.40
2023-04-09T23:21:32.495Z,88.30
2023-04-09T23:24:01.273Z,88.20
2023-04-09T23:26:30.052Z,88.00
2023-04-09T23:29:01.049Z,88.00
2023-04-09T23:31:29.293Z,87.90
2023-04-09T23:33:57.804Z,87.80
2023-04-09T23:36:26.986Z,87.70
2023-04-09T23:38:55.440Z,87.90
2023-04-09T23:41:24.643Z,87.60
2023-04-09T23:43:53.759Z,87.50
2023-04-09T23:46:23.704Z,87.30
2023-04-09T23:48:52.047Z,87.30
2023-04-09T23:51:20.955Z,87.20
2023-04-09T23:53:49.619Z,87.20
2023-04-09T23:56:18.247Z,87.00
2023-04-09T23:58:47.078Z,86.90
